Time;durP1;ratioP1;P1;durP2;ratioP2;P2;SDS_P1;SDS_P2;PMS_P1;PMS_P2;Temp;Humidity;BMP_temperature;BMP_pressure;BME280_temperature;BME280_humidity;BME280_pressure;Samples;Min_cycle;Max_cycle;Signal;HPM_P1;HPM_P2
2022/11/30 00:02:39;;;;;;;46.50;28.83;;;;;;;12.03;62.14;99021.97;6979424;28;20214;-88
2022/11/30 00:06:05;;;;;;;50.50;28.70;;;;;;;11.91;62.56;99005.56;6979055;28;20252;-88
2022/11/30 00:09:26;;;;;;;51.80;30.00;;;;;;;12.02;62.83;99023.84;6979569;28;20228;-88
2022/11/30 00:12:48;;;;;;;49.33;29.13;;;;;;;11.96;63.14;99018.41;7006162;28;20293;-88
2022/11/30 00:16:10;;;;;;;54.33;30.90;;;;;;;11.87;63.82;99015.09;7006633;28;20263;-89
2022/11/30 00:19:33;;;;;;;53.77;29.53;;;;;;;11.86;63.88;99028.84;7005539;28;20272;-87
2022/11/30 00:22:56;;;;;;;54.33;29.90;;;;;;;11.82;63.30;98984.34;7007238;28;20244;-88
2022/11/30 00:26:21;;;;;;;50.70;29.83;;;;;;;11.94;63.38;99017.81;7006635;28;20304;-88
2022/11/30 00:29:42;;;;;;;51.40;30.73;;;;;;;12.07;63.57;99021.34;7007450;28;20216;-89
2022/11/30 00:33:04;;;;;;;54.00;30.83;;;;;;;12.25;62.82;99016.13;6984809;28;20343;-88
2022/11/30 00:36:25;;;;;;;51.33;29.30;;;;;;;12.51;61.86;99020.66;6980489;28;20269;-89
2022/11/30 00:39:48;;;;;;;50.97;28.30;;;;;;;12.17;61.83;99016.31;6982785;28;20206;-88
2022/11/30 00:43:10;;;;;;;54.83;30.67;;;;;;;12.05;62.80;99020.69;6982346;28;20238;-89
2022/11/30 00:46:31;;;;;;;50.60;29.97;;;;;;;12.07;62.87;99024.03;6982253;28;20289;-88
2022/11/30 00:49:53;;;;;;;55.23;32.67;;;;;;;12.21;62.71;99022.16;6982783;28;20287;-89
2022/11/30 00:53:14;;;;;;;57.33;31.63;;;;;;;12.05;62.84;99018.00;6982753;28;20218;-89
2022/11/30 00:56:37;;;;;;;52.47;29.17;;;;;;;12.21;62.54;99019.47;6982573;28;20297;-88
2022/11/30 00:59:59;;;;;;;53.33;30.47;;;;;;;12.12;62.38;98993.69;6983194;28;20250;-88
2022/11/30 01:03:20;;;;;;;51.87;30.37;;;;;;;12.50;61.79;99013.56;7008640;28;20212;-88
2022/11/30 01:06:42;;;;;;;51.17;29.63;;;;;;;12.44;61.39;99009.00;7010147;28;20270;-89
2022/11/30 01:10:04;;;;;;;52.03;29.33;;;;;;;12.28;62.06;99014.88;7005831;28;20274;-90
2022/11/30 01:13:27;;;;;;;52.37;28.73;;;;;;;12.15;61.69;99018.41;7009834;28;20344;-89
2022/11/30 01:16:49;;;;;;;50.17;28.43;;;;;;;12.15;62.36;99028.41;7010259;28;20265;-88
2022/11/30 01:20:11;;;;;;;48.67;29.23;;;;;;;12.43;61.74;99023.56;7009628;28;20319;-88
2022/11/30 01:23:32;;;;;;;45.37;26.43;;;;;;;12.53;61.47;99030.22;7010806;28;20273;-88
2022/11/30 01:26:54;;;;;;;47.63;28.30;;;;;;;12.39;61.17;99019.63;7010345;28;20366;-88
2022/11/30 01:30:18;;;;;;;40.53;26.47;;;;;;;12.12;61.88;99012.59;7010569;28;20687;-88
2022/11/30 01:33:39;;;;;;;48.87;28.57;;;;;;;11.65;62.77;98997.47;6983335;28;20239;-88
2022/11/30 01:37:01;;;;;;;54.13;28.40;;;;;;;11.75;63.28;99015.94;6981833;28;20238;-88
2022/11/30 01:40:22;;;;;;;48.33;29.17;;;;;;;11.69;63.05;99001.38;6983157;28;20238;-88
2022/11/30 01:43:46;;;;;;;55.50;28.23;;;;;;;11.80;63.38;99035.88;6982769;28;20240;-88
2022/11/30 01:47:11;;;;;;;56.57;32.50;;;;;;;11.87;63.45;99042.13;6981324;28;20245;-88
2022/11/30 01:50:34;;;;;;;49.87;29.57;;;;;;;11.89;62.94;99031.09;6986875;28;20206;-87
2022/11/30 01:53:56;;;;;;;53.73;28.57;;;;;;;11.87;62.76;99017.81;7016271;28;20213;-87
2022/11/30 01:57:21;;;;;;;55.83;31.43;;;;;;;11.34;63.62;98989.06;7015416;28;20233;-87
2022/11/30 02:00:46;;;;;;;56.33;32.23;;;;;;;11.67;63.50;99030.47;7016299;28;20551;-88
2022/11/30 02:04:12;;;;;;;52.43;29.67;;;;;;;11.71;63.41;99012.84;7014870;28;20266;-87
2022/11/30 02:07:34;;;;;;;51.47;28.67;;;;;;;11.88;63.40;99046.50;7013962;28;20226;-88
2022/11/30 02:10:59;;;;;;;50.93;28.97;;;;;;;11.82;63.13;99024.88;7014877;28;20205;-87
2022/11/30 02:14:32;;;;;;;49.40;28.13;;;;;;;11.92;63.44;99033.41;7015127;28;20229;-87
2022/11/30 02:17:58;;;;;;;45.17;26.47;;;;;;;11.94;63.26;99044.84;7013335;28;20249;-87
2022/11/30 02:21:24;;;;;;;50.43;27.03;;;;;;;11.99;63.01;99048.56;7011951;28;20623;-87
2022/11/30 02:24:54;;;;;;;50.67;28.33;;;;;;;11.87;63.19;99050.22;7013615;28;20212;-88
2022/11/30 02:28:42;;;;;;;47.37;27.67;;;;;;;11.58;63.27;99012.81;7013142;28;20228;-87
2022/11/30 02:32:09;;;;;;;47.57;28.07;;;;;;;11.78;63.33;99054.19;7012721;28;20245;-86
2022/11/30 02:35:33;;;;;;;48.33;28.10;;;;;;;11.83;63.29;99048.16;7012748;28;20221;-87
2022/11/30 03:09:48;;;;;;;42.60;25.47;;;;;;;11.80;63.46;99049.41;6774295;29;20226;-87
2022/11/30 03:31:43;;;;;;;41.50;24.37;;;;;;;11.83;63.10;99067.91;6569594;29;20216;-87
2022/11/30 03:58:09;;;;;;;;;;;;;;;;;;;;;
2022/11/30 05:06:32;;;;;;;51.27;24.93;;;;;;;11.58;63.90;99065.97;6646556;29;20204;-87
2022/11/30 05:10:43;;;;;;;38.60;23.10;;;;;;;11.95;63.21;99068.94;6725430;29;20699;-86
2022/11/30 05:14:54;;;;;;;39.53;22.20;;;;;;;11.81;62.72;99071.84;6716982;29;20272;-87
2022/11/30 05:18:50;;;;;;;38.77;22.70;;;;;;;11.96;62.89;99084.13;6717107;29;20338;-87
2022/11/30 05:22:40;;;;;;;36.90;22.67;;;;;;;11.84;63.58;99083.06;6801497;29;20662;-87
2022/11/30 05:26:46;;;;;;;35.63;23.13;;;;;;;11.71;63.53;99091.16;6957196;28;20206;-87
2022/11/30 05:38:36;;;;;;;40.37;23.97;;;;;;;12.01;63.34;99088.91;7011242;28;20316;-86
2022/11/30 05:51:05;;;;;;;51.13;24.10;;;;;;;11.73;63.83;99089.06;6971250;28;20206;-89
2022/11/30 05:54:27;;;;;;;39.67;23.73;;;;;;;11.44;64.18;99018.34;7009064;28;20417;-88
2022/11/30 05:57:49;;;;;;;38.40;22.67;;;;;;;11.69;63.62;99089.69;7007988;28;20236;-88
2022/11/30 06:01:17;;;;;;;37.27;22.00;;;;;;;11.71;63.88;99090.31;7008110;28;20225;-88
2022/11/30 06:04:39;;;;;;;38.20;23.97;;;;;;;11.79;63.23;99084.72;7008901;28;20259;-88
2022/11/30 06:08:01;;;;;;;39.00;23.40;;;;;;;11.62;63.89;99078.06;7011506;28;20234;-88
2022/11/30 06:11:24;;;;;;;40.20;23.27;;;;;;;11.61;63.62;99077.22;7001533;28;20221;-88
2022/11/30 06:14:45;;;;;;;36.63;21.77;;;;;;;12.00;62.72;99074.56;6979787;28;20292;-91
2022/11/30 06:18:07;;;;;;;37.53;21.67;;;;;;;12.14;62.36;99099.69;7017590;28;20259;-88
2022/11/30 06:21:30;;;;;;;38.20;22.83;;;;;;;12.14;62.07;99087.03;7035567;28;20208;-88
2022/11/30 06:24:51;;;;;;;30.80;19.93;;;;;;;12.14;62.08;99083.47;7035256;28;20540;-89
2022/11/30 06:28:14;;;;;;;31.33;20.83;;;;;;;11.73;63.09;99053.97;7034085;28;20583;-88
2022/11/30 06:31:35;;;;;;;32.17;20.60;;;;;;;11.89;62.62;99087.84;7023797;28;20230;-88
2022/11/30 06:34:57;;;;;;;33.57;19.33;;;;;;;12.10;61.80;99091.19;6980141;28;20281;-88
2022/11/30 06:42:02;;;;;;;30.47;20.07;;;;;;;11.95;62.46;99089.72;7012552;28;20208;-89
2022/11/30 06:45:25;;;;;;;32.47;19.90;;;;;;;12.11;62.46;99094.72;6999680;28;20201;-86
2022/11/30 06:48:48;;;;;;;27.53;18.17;;;;;;;12.16;62.00;99100.34;7008586;28;20229;-86
2022/11/30 06:52:10;;;;;;;25.73;18.13;;;;;;;11.84;61.22;99093.03;7011612;28;20207;-84
2022/11/30 06:55:34;;;;;;;24.83;16.93;;;;;;;11.94;61.33;99099.72;7012104;28;20201;-86
2022/11/30 06:58:56;;;;;;;27.23;18.13;;;;;;;11.64;61.22;99111.09;7011110;28;20229;-84
2022/11/30 07:02:18;;;;;;;28.40;17.83;;;;;;;11.79;61.10;99106.31;7003309;28;20217;-87
2022/11/30 07:05:42;;;;;;;25.50;17.13;;;;;;;11.17;61.92;99089.53;7009684;28;20233;-86
2022/11/30 07:09:06;;;;;;;25.10;17.40;;;;;;;11.16;63.08;99118.34;7015247;28;20225;-87
2022/11/30 07:12:27;;;;;;;26.50;17.53;;;;;;;11.01;63.05;99104.19;7014754;28;20194;-87
2022/11/30 07:16:37;;;;;;;24.37;17.83;;;;;;;11.05;63.66;99126.22;7015653;28;20248;-87
2022/11/30 07:20:03;;;;;;;28.93;17.47;;;;;;;11.00;63.24;99097.13;6984239;28;20301;-83
2022/11/30 07:31:57;;;;;;;30.33;19.43;;;;;;;11.81;61.91;99126.69;6993167;28;20224;-86
2022/11/30 07:35:54;;;;;;;27.50;18.90;;;;;;;12.03;60.84;99117.38;7029469;28;20200;-88
2022/11/30 07:39:19;;;;;;;24.60;16.70;;;;;;;11.99;60.66;99089.09;6979055;28;20233;-90
2022/11/30 07:42:40;;;;;;;25.27;17.47;;;;;;;11.54;60.05;99127.66;6985583;28;20272;-84
2022/11/30 07:46:05;;;;;;;28.00;18.03;;;;;;;12.05;59.61;99117.19;6984632;28;20213;-85
2022/11/30 07:49:27;;;;;;;29.03;18.97;;;;;;;12.18;59.54;99117.19;7014565;28;20338;-87
2022/11/30 07:52:54;;;;;;;27.63;17.73;;;;;;;12.34;58.95;99116.78;7011224;28;20239;-85
2022/11/30 07:56:18;;;;;;;30.87;18.27;;;;;;;12.15;58.33;99133.81;7013707;28;20220;-88
2022/11/30 07:59:40;;;;;;;26.23;18.60;;;;;;;12.13;59.07;99125.06;7016814;28;20620;-89
2022/11/30 08:03:02;;;;;;;28.07;18.23;;;;;;;11.80;58.79;99059.38;7002461;28;20206;-88
2022/11/30 08:06:25;;;;;;;25.90;18.03;;;;;;;12.30;58.53;99140.69;6991445;28;20206;-88
2022/11/30 08:09:49;;;;;;;27.03;18.03;;;;;;;12.25;57.40;99112.59;7001882;28;20233;-87
2022/11/30 08:13:11;;;;;;;26.63;17.97;;;;;;;12.18;58.17;99141.50;7002939;28;20204;-88
2022/11/30 08:16:39;;;;;;;27.70;17.83;;;;;;;11.87;57.48;99092.63;6998987;28;20238;-87
2022/11/30 08:20:01;;;;;;;26.67;18.53;;;;;;;12.21;56.35;99100.56;7004779;28;20197;-88
2022/11/30 08:23:23;;;;;;;25.93;18.03;;;;;;;12.30;57.16;99145.25;7007040;28;20765;-88
2022/11/30 08:26:46;;;;;;;26.20;17.33;;;;;;;12.47;56.69;99149.22;7014268;28;20225;-87
2022/11/30 08:30:09;;;;;;;28.13;17.83;;;;;;;12.16;57.45;99162.50;7014649;28;20776;-90
2022/11/30 08:33:32;;;;;;;30.30;18.17;;;;;;;12.30;57.41;99142.56;7038584;28;20212;-87
2022/11/30 08:36:54;;;;;;;27.13;17.67;;;;;;;12.27;57.44;99161.91;7018429;28;20232;-88
2022/11/30 08:40:27;;;;;;;27.47;18.37;;;;;;;11.85;58.50;99146.03;7022280;28;20223;-87
2022/11/30 08:57:11;;;;;;;26.50;17.73;;;;;;;12.33;58.07;99163.78;6831418;28;20228;-87
2022/11/30 09:17:20;;;;;;;21.60;15.17;;;;;;;11.63;56.23;99196.66;6850128;28;20232;-87
2022/11/30 09:20:42;;;;;;;20.80;14.17;;;;;;;12.00;56.35;99184.53;6880945;28;20216;-87
2022/11/30 09:24:18;;;;;;;22.30;14.53;;;;;;;11.77;56.84;99179.50;6925800;28;20207;-87
2022/11/30 09:27:40;;;;;;;20.57;14.70;;;;;;;11.04;57.75;99089.47;7004793;28;20225;-86
2022/11/30 09:31:03;;;;;;;21.10;14.40;;;;;;;11.66;57.78;99155.75;7021834;28;20210;-87
2022/11/30 09:34:27;;;;;;;22.57;15.17;;;;;;;12.24;55.98;99173.13;6994503;28;20758;-89
2022/11/30 09:37:49;;;;;;;21.13;14.27;;;;;;;12.37;55.44;99187.50;6989278;28;20711;-87
2022/11/30 09:41:35;;;;;;;21.07;15.10;;;;;;;12.01;56.60;99175.38;6993797;28;20210;-87
2022/11/30 09:45:10;;;;;;;21.80;15.43;;;;;;;12.06;55.76;99178.28;6990366;28;20215;-87
2022/11/30 09:48:47;;;;;;;23.20;16.23;;;;;;;12.03;55.92;99176.03;7014678;28;20216;-87
2022/11/30 09:52:18;;;;;;;25.07;16.43;;;;;;;11.92;57.76;99190.13;7004089;28;20216;-88
2022/11/30 10:00:03;;;;;;;24.50;16.77;;;;;;;10.88;60.48;99127.56;7018558;28;20466;-87
2022/11/30 10:03:43;;;;;;;26.47;16.70;;;;;;;11.60;59.50;99156.56;6931507;28;20231;-90
2022/11/30 10:12:01;;;;;;;27.80;17.83;;;;;;;11.17;59.03;99167.78;7010658;28;20268;-87
2022/11/30 10:15:35;;;;;;;25.03;17.30;;;;;;;11.91;58.08;99183.03;7007177;28;20206;-87
2022/11/30 10:19:05;;;;;;;27.87;17.67;;;;;;;12.39;56.39;99171.06;6996576;28;20240;-88
2022/11/30 10:23:13;;;;;;;24.80;16.83;;;;;;;12.27;56.22;99113.25;6997930;28;20601;-87
2022/11/30 10:26:38;;;;;;;23.40;15.13;;;;;;;11.91;57.79;99172.22;6999576;28;20290;-88
2022/11/30 10:30:04;;;;;;;21.73;15.73;;;;;;;12.20;55.98;99167.28;7013189;28;20197;-86
2022/11/30 10:33:32;;;;;;;22.93;15.43;;;;;;;12.31;55.73;99153.16;7007774;28;20197;-91
2022/11/30 10:37:00;;;;;;;24.70;17.33;;;;;;;12.06;56.10;99141.31;7014204;28;20255;-89
2022/11/30 10:40:30;;;;;;;23.30;15.50;;;;;;;12.16;56.98;99151.69;6987188;28;20198;-89
2022/11/30 10:43:58;;;;;;;22.23;16.03;;;;;;;12.24;57.18;99141.53;6987270;28;20198;-87
2022/11/30 10:47:36;;;;;;;25.70;16.27;;;;;;;11.48;58.73;99168.97;7005480;28;20220;-91
2022/11/30 10:51:01;;;;;;;22.07;16.03;;;;;;;12.02;57.69;99155.41;7002155;28;20216;-86
2022/11/30 10:54:24;;;;;;;21.10;14.20;;;;;;;12.08;56.17;99111.34;6995026;28;20212;-86
2022/11/30 10:57:47;;;;;;;24.10;16.23;;;;;;;12.11;56.34;99157.72;7009260;28;20230;-90
2022/11/30 11:01:11;;;;;;;24.77;16.50;;;;;;;11.89;57.39;99150.00;6997830;28;20275;-91
2022/11/30 11:04:33;;;;;;;23.20;15.67;;;;;;;11.87;57.16;99144.78;7002063;28;20202;-90
2022/11/30 11:07:57;;;;;;;21.33;15.23;;;;;;;12.53;56.37;99149.22;7002798;28;20787;-90
2022/11/30 11:11:33;;;;;;;21.37;15.07;;;;;;;12.65;55.33;99117.78;7004000;28;20202;-89
2022/11/30 11:15:09;;;;;;;25.40;17.53;;;;;;;11.12;58.36;99079.34;6977231;28;20216;-90
2022/11/30 11:18:33;;;;;;;27.27;19.30;;;;;;;11.61;59.38;99147.44;6987282;28;20221;-90
2022/11/30 11:21:55;;;;;;;25.73;17.43;;;;;;;11.49;59.97;99137.38;6988289;28;20228;-91
2022/11/30 11:25:21;;;;;;;23.50;17.10;;;;;;;11.15;60.19;99164.47;6999325;28;20278;-91
2022/11/30 11:28:48;;;;;;;21.87;15.90;;;;;;;11.95;58.07;99127.56;7003054;28;20245;-87
2022/11/30 11:32:50;;;;;;;23.73;16.90;;;;;;;12.44;56.93;99144.19;7002074;28;20198;-88
2022/11/30 11:36:46;;;;;;;26.20;16.83;;;;;;;12.04;56.90;99127.16;6989979;28;20205;-90
2022/11/30 11:40:21;;;;;;;25.00;15.40;;;;;;;11.30;58.95;99135.44;6989954;28;20200;-89
2022/11/30 11:44:20;;;;;;;22.40;16.23;;;;;;;11.47;57.42;99156.50;7010317;28;20263;-89
2022/11/30 11:47:47;;;;;;;23.77;16.33;;;;;;;12.21;55.79;99114.88;7005479;28;20312;-88
2022/11/30 11:51:12;;;;;;;24.50;16.73;;;;;;;12.49;54.79;99158.78;6991218;28;20213;-88
2022/11/30 11:54:40;;;;;;;22.07;15.63;;;;;;;12.40;54.08;99165.41;7025816;28;20208;-88
2022/11/30 11:58:03;;;;;;;22.53;15.60;;;;;;;11.93;56.16;99145.84;7026088;28;20241;-88
2022/11/30 12:01:45;;;;;;;22.90;16.37;;;;;;;11.96;55.11;99150.81;7025611;28;20204;-90
2022/11/30 12:05:11;;;;;;;21.17;15.43;;;;;;;12.35;54.83;99135.50;6993789;28;20217;-88
2022/11/30 12:08:37;;;;;;;21.17;15.30;;;;;;;12.40;54.37;99153.78;6995264;28;20230;-89
2022/11/30 12:12:00;;;;;;;24.10;15.87;;;;;;;11.43;57.35;99130.09;6992593;28;20217;-88
2022/11/30 12:15:26;;;;;;;25.20;16.37;;;;;;;12.22;56.70;99146.28;6990612;28;20600;-89
2022/11/30 12:18:52;;;;;;;21.53;14.90;;;;;;;12.18;55.98;99149.63;7010547;28;20236;-88
2022/11/30 12:22:26;;;;;;;26.53;17.93;;;;;;;12.21;54.57;99150.03;7017362;28;20202;-89
2022/11/30 12:25:52;;;;;;;27.40;15.87;;;;;;;12.26;55.07;99139.44;7015072;28;20189;-88
2022/11/30 12:29:21;;;;;;;22.53;14.97;;;;;;;12.70;54.99;99136.09;7016796;28;20217;-88
2022/11/30 12:33:12;;;;;;;21.87;13.57;;;;;;;12.81;54.12;99136.25;7017414;28;20197;-88
2022/11/30 12:36:43;;;;;;;19.10;13.67;;;;;;;12.50;53.89;99122.56;7013627;28;20249;-88
2022/11/30 12:40:14;;;;;;;19.50;13.80;;;;;;;12.37;54.35;99070.38;7012310;28;20205;-88
2022/11/30 12:43:44;;;;;;;17.33;13.50;;;;;;;13.27;53.29;99133.47;7011846;28;20279;-88
2022/11/30 12:47:15;;;;;;;19.93;14.40;;;;;;;13.37;53.42;99126.53;7006514;28;20249;-88
2022/11/30 12:50:45;;;;;;;17.67;13.53;;;;;;;13.42;53.13;99137.56;7012891;28;20350;-89
2022/11/30 12:54:10;;;;;;;22.07;16.63;;;;;;;13.28;51.90;99108.06;7012941;28;20223;-90
2022/11/30 12:57:36;;;;;;;18.10;14.47;;;;;;;13.13;53.34;99127.28;7022933;28;20702;-89
2022/11/30 13:01:07;;;;;;;21.43;16.13;;;;;;;13.37;52.92;99131.13;7013753;28;20190;-88
2022/11/30 13:04:33;;;;;;;19.10;13.50;;;;;;;13.42;52.37;99131.31;7010648;28;20209;-88
2022/11/30 13:08:00;;;;;;;17.63;12.17;;;;;;;13.33;51.90;99103.63;7009244;28;20229;-88
2022/11/30 13:11:24;;;;;;;19.77;14.80;;;;;;;13.30;53.11;99133.03;7010482;28;20194;-88
2022/11/30 13:14:46;;;;;;;19.67;14.17;;;;;;;13.15;53.99;99118.94;7007485;28;20255;-91
2022/11/30 13:18:09;;;;;;;17.10;12.63;;;;;;;13.45;52.96;99137.13;6992606;28;20262;-89
2022/11/30 13:21:34;;;;;;;21.97;14.33;;;;;;;12.47;55.17;99127.56;7000748;28;20205;-88
2022/11/30 13:25:02;;;;;;;25.50;13.87;;;;;;;12.10;55.17;99039.84;7007193;28;20251;-88
2022/11/30 13:28:31;;;;;;;19.00;12.13;;;;;;;12.91;54.57;99138.53;7007442;28;20255;-89
2022/11/30 13:31:56;;;;;;;17.17;12.33;;;;;;;12.73;54.15;99125.66;7006381;28;20222;-88
2022/11/30 13:35:40;;;;;;;21.20;12.30;;;;;;;12.69;55.08;99137.94;7007446;28;20201;-86
2022/11/30 13:39:16;;;;;;;17.37;13.10;;;;;;;13.04;54.87;99147.47;7010599;28;20229;-88
2022/11/30 13:42:41;;;;;;;17.17;12.03;;;;;;;13.02;54.32;99136.03;7010611;28;20233;-87
2022/11/30 13:46:22;;;;;;;18.93;12.60;;;;;;;13.21;53.92;99134.31;6997883;28;20190;-89
2022/11/30 13:49:44;;;;;;;21.43;14.27;;;;;;;13.36;53.61;99146.56;7000748;28;20194;-87
2022/11/30 13:53:32;;;;;;;18.60;13.33;;;;;;;13.21;54.88;99139.75;6999604;28;20581;-88
2022/11/30 13:56:59;;;;;;;19.33;13.27;;;;;;;12.77;54.54;99150.44;6997393;28;20218;-87
2022/11/30 14:00:46;;;;;;;21.27;14.77;;;;;;;12.92;56.00;99134.81;7006119;28;20268;-87
2022/11/30 14:04:32;;;;;;;17.17;13.27;;;;;;;12.87;55.09;99099.41;6992131;28;20260;-88
2022/11/30 14:08:36;;;;;;;17.70;12.63;;;;;;;13.07;55.03;99124.56;6989084;28;20268;-87
2022/11/30 14:12:43;;;;;;;18.17;13.00;;;;;;;13.15;55.39;99135.19;6918308;28;20241;-87
2022/11/30 14:16:22;;;;;;;21.30;13.93;;;;;;;12.41;56.37;99140.06;6962598;28;20277;-89
2022/11/30 14:19:48;;;;;;;21.83;14.43;;;;;;;11.88;57.94;99092.44;6993043;28;20266;-87
2022/11/30 14:23:12;;;;;;;21.87;14.23;;;;;;;12.51;57.39;99113.41;6985706;28;20190;-90
2022/11/30 14:26:37;;;;;;;23.93;15.60;;;;;;;12.76;56.64;99135.25;6979486;28;20724;-89
2022/11/30 14:30:01;;;;;;;20.27;14.23;;;;;;;12.78;57.30;99142.09;6979672;28;20678;-89
2022/11/30 14:33:25;;;;;;;24.37;15.03;;;;;;;12.91;56.99;99141.22;6979517;28;20234;-89
2022/11/30 14:37:02;;;;;;;22.70;14.87;;;;;;;12.69;56.07;99148.75;6981496;28;20241;-87
2022/11/30 14:40:54;;;;;;;19.97;13.93;;;;;;;12.80;56.42;99142.72;6989743;28;20226;-87
2022/11/30 14:44:16;;;;;;;20.20;14.33;;;;;;;12.80;56.09;99117.56;6986786;28;20202;-87
2022/11/30 14:47:39;;;;;;;22.17;14.60;;;;;;;12.42;56.68;99144.44;6989141;28;20230;-87
2022/11/30 14:51:02;;;;;;;22.63;14.90;;;;;;;12.47;56.14;99078.91;7010308;28;20201;-88
2022/11/30 14:54:39;;;;;;;21.10;14.67;;;;;;;12.67;56.36;99095.91;7017925;28;20579;-88
2022/11/30 14:58:22;;;;;;;26.00;15.40;;;;;;;12.75;56.03;99095.69;7011632;28;20255;-87
2022/11/30 15:01:54;;;;;;;20.07;14.43;;;;;;;12.74;55.99;99108.38;7016744;28;20210;-87
2022/11/30 15:05:25;;;;;;;18.90;13.70;;;;;;;12.59;56.09;99093.44;7016525;28;20201;-87
2022/11/30 15:08:52;;;;;;;23.60;14.77;;;;;;;13.13;55.53;99146.22;7018088;28;20225;-87
2022/11/30 15:12:21;;;;;;;22.70;15.27;;;;;;;12.88;55.85;99130.84;7018224;28;20667;-88
2022/11/30 15:20:23;;;;;;;26.50;17.23;;;;;;;12.35;57.25;99142.75;6985899;28;20245;-87
2022/11/30 15:23:45;;;;;;;28.40;17.57;;;;;;;11.97;58.08;99066.88;6982373;28;20206;-89
2022/11/30 15:27:09;;;;;;;23.80;16.53;;;;;;;12.27;58.14;99140.28;6977103;28;20228;-89
2022/11/30 15:30:32;;;;;;;26.93;18.80;;;;;;;12.20;58.33;99139.41;6978102;28;20210;-88
2022/11/30 15:33:53;;;;;;;99.20;46.03;;;;;;;12.43;58.19;99151.50;6977541;28;20203;-89
2022/11/30 15:37:16;;;;;;;101.23;41.43;;;;;;;12.51;58.08;99135.06;6978151;28;20229;-89
2022/11/30 15:40:38;;;;;;;27.03;17.77;;;;;;;12.81;57.24;99165.22;6978612;28;20260;-90
2022/11/30 15:44:00;;;;;;;25.23;16.73;;;;;;;12.84;57.08;99156.66;6979884;28;20229;-88
2022/11/30 15:47:25;;;;;;;25.67;16.53;;;;;;;12.89;57.07;99162.25;7034377;28;20252;-86
2022/11/30 15:50:47;;;;;;;25.07;18.53;;;;;;;12.86;56.94;99149.19;7018020;28;20207;-87
2022/11/30 15:54:10;;;;;;;31.10;20.83;;;;;;;12.54;57.01;99122.97;7007694;28;20213;-88
2022/11/30 15:57:59;;;;;;;24.50;16.87;;;;;;;12.80;56.90;99168.97;7008358;28;20221;-89
2022/11/30 16:01:23;;;;;;;26.43;16.07;;;;;;;12.63;56.96;99156.91;7026470;28;20204;-87
2022/11/30 16:05:22;;;;;;;24.70;16.30;;;;;;;12.66;57.33;99161.88;7029065;28;20205;-88
2022/11/30 16:08:46;;;;;;;23.10;16.43;;;;;;;12.37;58.38;99175.81;6985296;28;20221;-89
2022/11/30 16:12:17;;;;;;;24.77;17.60;;;;;;;12.42;58.31;99182.28;6986943;28;20232;-86
2022/11/30 16:15:45;;;;;;;23.83;15.17;;;;;;;12.50;57.80;99176.66;6995567;28;20198;-87
2022/11/30 16:19:07;;;;;;;22.33;13.03;;;;;;;12.56;56.96;99175.84;6979526;28;20305;-87
2022/11/30 16:22:29;;;;;;;18.60;13.53;;;;;;;11.93;58.00;99186.38;6996642;28;20283;-87
2022/11/30 16:25:51;;;;;;;17.83;12.93;;;;;;;12.17;57.31;99158.78;6978113;28;20229;-87
2022/11/30 16:29:13;;;;;;;21.03;13.77;;;;;;;12.03;57.24;99130.06;6979285;28;20229;-87
2022/11/30 16:32:35;;;;;;;18.47;13.50;;;;;;;12.12;58.12;99183.72;6978235;28;20211;-87
2022/11/30 16:35:58;;;;;;;22.67;14.17;;;;;;;12.10;57.98;99155.22;6977216;28;20213;-87
2022/11/30 16:39:20;;;;;;;20.17;13.77;;;;;;;12.28;57.28;99174.38;7005908;28;20759;-87
2022/11/30 16:42:42;;;;;;;16.10;11.97;;;;;;;12.18;57.27;99190.16;7009023;28;20662;-87
2022/11/30 16:46:05;;;;;;;18.83;11.23;;;;;;;12.30;56.49;99183.94;7008156;28;20205;-87
2022/11/30 16:49:26;;;;;;;14.73;10.53;;;;;;;12.35;56.13;99164.41;7007927;28;20241;-87
2022/11/30 16:52:48;;;;;;;17.13;11.43;;;;;;;12.42;55.77;99151.69;6982786;28;20205;-86
2022/11/30 16:56:10;;;;;;;20.13;12.63;;;;;;;11.96;56.77;99162.47;6983716;28;20202;-87
2022/11/30 16:59:32;;;;;;;16.10;11.70;;;;;;;12.24;57.44;99186.63;6987662;28;20240;-89
2022/11/30 17:02:58;;;;;;;16.30;12.03;;;;;;;12.32;57.31;99198.09;7011502;28;20209;-89
2022/11/30 17:06:22;;;;;;;18.07;12.97;;;;;;;12.37;56.91;99183.94;7010015;28;20186;-88
2022/11/30 17:09:44;;;;;;;15.47;10.60;;;;;;;12.61;55.23;99178.75;7015296;28;20209;-85
2022/11/30 17:13:06;;;;;;;11.10;8.40;;;;;;;12.48;55.14;99178.75;7008030;28;20734;-91
2022/11/30 17:16:28;;;;;;;13.23;9.87;;;;;;;12.57;54.64;99196.44;7016838;28;20206;-86
2022/11/30 17:19:51;;;;;;;13.50;9.13;;;;;;;12.19;56.50;99181.84;7017859;28;20226;-90
2022/11/30 17:23:12;;;;;;;9.23;7.23;;;;;;;12.43;55.03;99181.25;7017898;28;20205;-91
2022/11/30 17:26:34;;;;;;;8.57;6.97;;;;;;;12.49;54.49;99209.31;7017789;28;20206;-89
2022/11/30 17:29:56;;;;;;;8.60;7.63;;;;;;;12.20;54.08;99178.09;7020786;28;20198;-90
2022/11/30 17:33:18;;;;;;;7.47;5.87;;;;;;;12.23;53.88;99190.38;7020840;28;20206;-89
2022/11/30 17:36:43;;;;;;;9.30;6.83;;;;;;;11.90;54.05;99147.09;7022276;28;20228;-89
2022/11/30 17:40:21;;;;;;;6.53;5.53;;;;;;;12.43;53.20;99186.66;7009588;28;20225;-90
2022/11/30 17:44:13;;;;;;;6.50;5.53;;;;;;;12.12;53.52;99174.78;7014147;28;20205;-92
2022/11/30 17:51:27;;;;;;;10.57;9.10;;;;;;;12.45;53.28;99216.19;7008836;28;20282;-91
2022/11/30 17:55:18;;;;;;;8.83;7.63;;;;;;;12.09;53.93;99232.78;7014557;28;20272;-90
2022/11/30 17:58:47;;;;;;;12.80;10.90;;;;;;;11.92;54.19;99206.34;7011030;28;20233;-91
2022/11/30 18:02:17;;;;;;;9.50;7.77;;;;;;;11.83;54.27;99170.56;7018252;28;20207;-89
2022/11/30 18:13:54;;;;;;;9.23;6.80;;;;;;;11.41;54.15;99227.50;6963118;28;20221;-89
2022/11/30 18:17:49;;;;;;;14.17;12.17;;;;;;;11.08;54.45;99198.66;7005341;28;20300;-90
2022/11/30 18:21:22;;;;;;;11.80;8.20;;;;;;;11.51;54.36;99229.84;7008576;28;20281;-89
2022/11/30 18:25:21;;;;;;;12.63;8.23;;;;;;;11.74;53.27;99233.09;7025145;28;20209;-90
2022/11/30 18:28:45;;;;;;;11.17;9.17;;;;;;;11.30;53.88;99173.25;7022060;28;20215;-90
2022/11/30 18:32:52;;;;;;;12.90;9.30;;;;;;;11.90;53.13;99240.81;7010533;28;20205;-90
2022/11/30 18:53:58;;;;;;;12.27;8.33;;;;;;;10.60;54.65;99161.81;6810013;29;20277;-88
2022/11/30 19:01:57;;;;;;;14.93;11.90;;;;;;;11.13;55.52;99197.03;6821044;29;20638;-89
2022/11/30 19:18:33;;;;;;;18.03;13.00;;;;;;;11.87;53.55;99255.56;6899725;28;20238;-87
2022/11/30 19:22:32;;;;;;;11.80;8.50;;;;;;;11.81;53.52;99260.97;6894593;28;20279;-87
2022/11/30 19:26:40;;;;;;;13.00;8.53;;;;;;;11.16;53.74;99263.28;6877381;28;20204;-88
2022/11/30 19:42:58;;;;;;;10.57;8.13;;;;;;;10.86;54.12;99284.22;6903013;28;20208;-88
2022/11/30 19:46:29;;;;;;;17.10;9.27;;;;;;;9.31;55.19;99179.16;6902954;28;20602;-88
2022/11/30 19:49:50;;;;;;;12.77;9.53;;;;;;;10.33;54.70;99252.41;6926907;28;20206;-89
2022/11/30 19:53:15;;;;;;;10.90;8.47;;;;;;;10.35;54.44;99293.50;6989796;28;20233;-89
2022/11/30 19:57:12;;;;;;;14.03;8.87;;;;;;;10.22;54.71;99290.66;6985302;28;20681;-87
2022/11/30 20:04:53;;;;;;;13.10;9.00;;;;;;;10.58;53.32;99279.81;6817321;28;20223;-88
2022/11/30 20:08:15;;;;;;;12.50;8.80;;;;;;;9.99;55.29;99295.31;7005268;28;20229;-86
2022/11/30 20:11:37;;;;;;;14.17;8.87;;;;;;;8.87;57.30;99225.06;6997395;28;20205;-89
2022/11/30 20:15:11;;;;;;;15.27;9.60;;;;;;;9.43;55.61;99296.06;6993135;28;20214;-87
2022/11/30 20:23:19;;;;;;;13.97;9.50;;;;;;;10.46;53.90;99302.94;7019673;28;20288;-87
2022/11/30 20:27:08;;;;;;;12.67;9.47;;;;;;;10.17;53.92;99293.06;6988624;28;20249;-89
2022/11/30 20:31:06;;;;;;;13.40;8.77;;;;;;;9.64;55.02;99290.75;7010413;28;20206;-86
2022/11/30 20:34:27;;;;;;;13.43;8.87;;;;;;;10.22;54.83;99292.53;7010022;28;20201;-87
2022/11/30 20:37:49;;;;;;;12.30;8.53;;;;;;;10.16;53.21;99304.06;7020077;28;20225;-87
2022/11/30 20:41:21;;;;;;;14.53;10.07;;;;;;;8.88;56.10;99310.09;7019295;28;20230;-89
2022/11/30 20:44:43;;;;;;;13.37;8.53;;;;;;;8.89;55.94;99209.59;7015745;28;20215;-87